sensor_id;sensor_type;location;lat;lon;timestamp;P1;P2;P0
69688;PMS5003;56932;38.402;-96.176;2023-04-24T00:01:38;40;37;
69688;PMS5003;56932;38.402;-96.176;2023-04-24T00:04:03;41;34;
69688;PMS5003;56932;38.402;-96.176;2023-04-24T00:06:28;42;38;
69688;PMS5003;56932;38.402;-96.176;2023-04-24T00:08:54;39;33;
69688;PMS5003;56932;38.402;-96.176;2023-04-24T00:11:20;47;37;
69688;PMS5003;56932;38.402;-96.176;2023-04-24T00:13:45;42;33;
69688;PMS5003;56932;38.402;-96.176;2023-04-24T00:16:11;43;38;
69688;PMS5003;56932;38.402;-96.176;2023-04-24T00:18:36;40;36;
69688;PMS5003;56932;38.402;-96.176;2023-04-24T00:21:02;45;37;
69688;PMS5003;56932;38.402;-96.176;2023-04-24T00:23:27;44;37;
69688;PMS5003;56932;38.402;-96.176;2023-04-24T00:25:53;42;36;
69688;PMS5003;56932;38.402;-96.176;2023-04-24T00:28:18;42;34;
69688;PMS5003;56932;38.402;-96.176;2023-04-24T00:30:44;42;34;
69688;PMS5003;56932;38.402;-96.176;2023-04-24T00:33:09;42;41;
69688;PMS5003;56932;38.402;-96.176;2023-04-24T00:35:34;43;36;
69688;PMS5003;56932;38.402;-96.176;2023-04-24T00:38:00;42;32;
69688;PMS5003;56932;38.402;-96.176;2023-04-24T00:40:25;36;34;
69688;PMS5003;56932;38.402;-96.176;2023-04-24T00:42:50;36;32;
69688;PMS5003;56932;38.402;-96.176;2023-04-24T00:45:16;39;35;
69688;PMS5003;56932;38.402;-96.176;2023-04-24T00:47:41;36;31;
69688;PMS5003;56932;38.402;-96.176;2023-04-24T00:50:07;30;29;
69688;PMS5003;56932;38.402;-96.176;2023-04-24T00:52:32;38;32;
69688;PMS5003;56932;38.402;-96.176;2023-04-24T00:54:57;40;36;
69688;PMS5003;56932;38.402;-96.176;2023-04-24T00:57:23;45;36;
69688;PMS5003;56932;38.402;-96.176;2023-04-24T00:59:48;33;32;
69688;PMS5003;56932;38.402;-96.176;2023-04-24T01:02:13;37;35;
69688;PMS5003;56932;38.402;-96.176;2023-04-24T01:04:39;33;28;
69688;PMS5003;56932;38.402;-96.176;2023-04-24T01:07:05;37;32;
69688;PMS5003;56932;38.402;-96.176;2023-04-24T01:09:30;41;34;
69688;PMS5003;56932;38.402;-96.176;2023-04-24T01:11:56;39;32;
69688;PMS5003;56932;38.402;-96.176;2023-04-24T01:14:21;34;33;
69688;PMS5003;56932;38.402;-96.176;2023-04-24T01:16:47;35;31;
69688;PMS5003;56932;38.402;-96.176;2023-04-24T01:19:12;38;29;
69688;PMS5003;56932;38.402;-96.176;2023-04-24T01:21:38;33;33;
69688;PMS5003;56932;38.402;-96.176;2023-04-24T01:24:04;34;29;
69688;PMS5003;56932;38.402;-96.176;2023-04-24T01:26:29;37;32;
69688;PMS5003;56932;38.402;-96.176;2023-04-24T01:28:54;28;28;
69688;PMS5003;56932;38.402;-96.176;2023-04-24T01:31:20;29;27;
69688;PMS5003;56932;38.402;-96.176;2023-04-24T01:33:45;30;28;
69688;PMS5003;56932;38.402;-96.176;2023-04-24T01:36:11;33;32;
69688;PMS5003;56932;38.402;-96.176;2023-04-24T01:38:35;33;28;
69688;PMS5003;56932;38.402;-96.176;2023-04-24T01:41:01;29;28;
69688;PMS5003;56932;38.402;-96.176;2023-04-24T01:43:26;31;29;
69688;PMS5003;56932;38.402;-96.176;2023-04-24T01:45:52;30;28;
69688;PMS5003;56932;38.402;-96.176;2023-04-24T01:48:18;29;25;
69688;PMS5003;56932;38.402;-96.176;2023-04-24T01:50:43;36;29;
69688;PMS5003;56932;38.402;-96.176;2023-04-24T01:53:08;29;27;
69688;PMS5003;56932;38.402;-96.176;2023-04-24T01:55:34;37;30;
69688;PMS5003;56932;38.402;-96.176;2023-04-24T01:57:59;33;30;
69688;PMS5003;56932;38.402;-96.176;2023-04-24T02:00:25;34;29;
69688;PMS5003;56932;38.402;-96.176;2023-04-24T02:02:50;33;28;
69688;PMS5003;56932;38.402;-96.176;2023-04-24T02:05:15;32;31;
69688;PMS5003;56932;38.402;-96.176;2023-04-24T02:07:41;32;28;
69688;PMS5003;56932;38.402;-96.176;2023-04-24T02:10:07;30;28;
69688;PMS5003;56932;38.402;-96.176;2023-04-24T02:12:32;28;27;
69688;PMS5003;56932;38.402;-96.176;2023-04-24T02:14:57;30;22;
69688;PMS5003;56932;38.402;-96.176;2023-04-24T02:17:23;29;27;
69688;PMS5003;56932;38.402;-96.176;2023-04-24T02:19:48;27;26;
69688;PMS5003;56932;38.402;-96.176;2023-04-24T02:22:14;37;26;
69688;PMS5003;56932;38.402;-96.176;2023-04-24T02:24:40;27;25;
69688;PMS5003;56932;38.402;-96.176;2023-04-24T02:27:06;25;24;
69688;PMS5003;56932;38.402;-96.176;2023-04-24T02:29:31;30;26;
69688;PMS5003;56932;38.402;-96.176;2023-04-24T02:31:56;31;25;
69688;PMS5003;56932;38.402;-96.176;2023-04-24T02:34:22;24;22;
69688;PMS5003;56932;38.402;-96.176;2023-04-24T02:36:47;27;26;
69688;PMS5003;56932;38.402;-96.176;2023-04-24T02:39:12;34;26;
69688;PMS5003;56932;38.402;-96.176;2023-04-24T02:41:38;34;26;
69688;PMS5003;56932;38.402;-96.176;2023-04-24T02:44:04;25;25;
69688;PMS5003;56932;38.402;-96.176;2023-04-24T02:46:29;31;26;
69688;PMS5003;56932;38.402;-96.176;2023-04-24T02:48:54;32;27;
69688;PMS5003;56932;38.402;-96.176;2023-04-24T02:51:20;27;23;
69688;PMS5003;56932;38.402;-96.176;2023-04-24T02:53:46;32;24;
69688;PMS5003;56932;38.402;-96.176;2023-04-24T02:56:11;26;20;
69688;PMS5003;56932;38.402;-96.176;2023-04-24T02:58:37;27;25;
69688;PMS5003;56932;38.402;-96.176;2023-04-24T03:01:02;32;28;
69688;PMS5003;56932;38.402;-96.176;2023-04-24T03:03:28;29;24;
69688;PMS5003;56932;38.402;-96.176;2023-04-24T03:05:53;34;28;
69688;PMS5003;56932;38.402;-96.176;2023-04-24T03:08:18;26;25;
69688;PMS5003;56932;38.402;-96.176;2023-04-24T03:10:43;23;19;
69688;PMS5003;56932;38.402;-96.176;2023-04-24T03:13:09;28;25;
69688;PMS5003;56932;38.402;-96.176;2023-04-24T03:15:35;33;24;
69688;PMS5003;56932;38.402;-96.176;2023-04-24T03:18:00;23;21;
69688;PMS5003;56932;38.402;-96.176;2023-04-24T03:20:25;26;23;
69688;PMS5003;56932;38.402;-96.176;2023-04-24T03:22:51;29;25;
69688;PMS5003;56932;38.402;-96.176;2023-04-24T03:25:17;31;22;
69688;PMS5003;56932;38.402;-96.176;2023-04-24T03:27:42;21;21;
69688;PMS5003;56932;38.402;-96.176;2023-04-24T03:30:08;30;28;
69688;PMS5003;56932;38.402;-96.176;2023-04-24T03:32:33;27;22;
69688;PMS5003;56932;38.402;-96.176;2023-04-24T03:34:58;29;27;
69688;PMS5003;56932;38.402;-96.176;2023-04-24T03:37:24;33;28;
69688;PMS5003;56932;38.402;-96.176;2023-04-24T03:39:49;23;23;
69688;PMS5003;56932;38.402;-96.176;2023-04-24T03:42:15;29;25;
69688;PMS5003;56932;38.402;-96.176;2023-04-24T03:44:41;24;23;
69688;PMS5003;56932;38.402;-96.176;2023-04-24T03:47:06;26;24;
69688;PMS5003;56932;38.402;-96.176;2023-04-24T03:49:32;26;25;
69688;PMS5003;56932;38.402;-96.176;2023-04-24T03:51:58;30;27;
69688;PMS5003;56932;38.402;-96.176;2023-04-24T03:54:24;34;29;
69688;PMS5003;56932;38.402;-96.176;2023-04-24T03:56:49;32;25;
69688;PMS5003;56932;38.402;-96.176;2023-04-24T03:59:15;30;25;
69688;PMS5003;56932;38.402;-96.176;2023-04-24T04:01:40;30;25;
69688;PMS5003;56932;38.402;-96.176;2023-04-24T04:04:06;34;26;
69688;PMS5003;56932;38.402;-96.176;2023-04-24T04:06:31;27;25;
69688;PMS5003;56932;38.402;-96.176;2023-04-24T04:08:57;29;28;
69688;PMS5003;56932;38.402;-96.176;2023-04-24T04:11:22;31;24;
69688;PMS5003;56932;38.402;-96.176;2023-04-24T04:13:47;24;24;
69688;PMS5003;56932;38.402;-96.176;2023-04-24T04:16:13;29;23;
69688;PMS5003;56932;38.402;-96.176;2023-04-24T04:18:39;28;25;
69688;PMS5003;56932;38.402;-96.176;2023-04-24T04:21:04;35;28;
69688;PMS5003;56932;38.402;-96.176;2023-04-24T04:23:29;27;26;
69688;PMS5003;56932;38.402;-96.176;2023-04-24T04:25:54;29;25;
69688;PMS5003;56932;38.402;-96.176;2023-04-24T04:28:20;36;28;
69688;PMS5003;56932;38.402;-96.176;2023-04-24T04:30:45;33;25;
69688;PMS5003;56932;38.402;-96.176;2023-04-24T04:33:11;32;25;
69688;PMS5003;56932;38.402;-96.176;2023-04-24T04:35:37;35;25;
69688;PMS5003;56932;38.402;-96.176;2023-04-24T04:38:02;32;26;
69688;PMS5003;56932;38.402;-96.176;2023-04-24T04:40:28;28;25;
69688;PMS5003;56932;38.402;-96.176;2023-04-24T04:42:53;30;27;
69688;PMS5003;56932;38.402;-96.176;2023-04-24T04:45:18;21;13;
69688;PMS5003;56932;38.402;-96.176;2023-04-24T04:47:44;28;26;
69688;PMS5003;56932;38.402;-96.176;2023-04-24T04:50:10;26;24;
69688;PMS5003;56932;38.402;-96.176;2023-04-24T04:52:35;26;26;
69688;PMS5003;56932;38.402;-96.176;2023-04-24T04:55:00;26;23;
69688;PMS5003;56932;38.402;-96.176;2023-04-24T04:57:26;32;25;
69688;PMS5003;56932;38.402;-96.176;2023-04-24T04:59:51;25;25;
69688;PMS5003;56932;38.402;-96.176;2023-04-24T05:02:17;27;24;
69688;PMS5003;56932;38.402;-96.176;2023-04-24T05:04:43;29;29;
69688;PMS5003;56932;38.402;-96.176;2023-04-24T05:07:09;24;24;
69688;PMS5003;56932;38.402;-96.176;2023-04-24T05:09:34;26;24;
69688;PMS5003;56932;38.402;-96.176;2023-04-24T05:12:00;33;27;
69688;PMS5003;56932;38.402;-96.176;2023-04-24T05:14:25;24;24;
69688;PMS5003;56932;38.402;-96.176;2023-04-24T05:16:51;24;22;
69688;PMS5003;56932;38.402;-96.176;2023-04-24T05:19:16;32;25;
69688;PMS5003;56932;38.402;-96.176;2023-04-24T05:21:42;30;24;
69688;PMS5003;56932;38.402;-96.176;2023-04-24T05:24:08;32;25;
69688;PMS5003;56932;38.402;-96.176;2023-04-24T05:26:33;28;25;
69688;PMS5003;56932;38.402;-96.176;2023-04-24T05:28:58;35;28;
69688;PMS5003;56932;38.402;-96.176;2023-04-24T05:31:23;32;23;
69688;PMS5003;56932;38.402;-96.176;2023-04-24T05:33:48;26;24;
69688;PMS5003;56932;38.402;-96.176;2023-04-24T05:36:14;33;26;
69688;PMS5003;56932;38.402;-96.176;2023-04-24T05:38:40;34;26;
69688;PMS5003;56932;38.402;-96.176;2023-04-24T05:41:05;34;23;
69688;PMS5003;56932;38.402;-96.176;2023-04-24T05:43:31;25;22;
69688;PMS5003;56932;38.402;-96.176;2023-04-24T05:45:56;30;24;
69688;PMS5003;56932;38.402;-96.176;2023-04-24T05:48:22;28;22;
69688;PMS5003;56932;38.402;-96.176;2023-04-24T05:50:48;26;23;
69688;PMS5003;56932;38.402;-96.176;2023-04-24T05:53:13;29;25;
69688;PMS5003;56932;38.402;-96.176;2023-04-24T05:55:39;26;23;
69688;PMS5003;56932;38.402;-96.176;2023-04-24T05:58:05;29;23;
69688;PMS5003;56932;38.402;-96.176;2023-04-24T06:00:31;22;20;
69688;PMS5003;56932;38.402;-96.176;2023-04-24T06:02:56;32;24;
69688;PMS5003;56932;38.402;-96.176;2023-04-24T06:05:22;20;20;
69688;PMS5003;56932;38.402;-96.176;2023-04-24T06:07:48;25;23;
69688;PMS5003;56932;38.402;-96.176;2023-04-24T06:10:13;25;23;
69688;PMS5003;56932;38.402;-96.176;2023-04-24T06:12:38;25;21;
69688;PMS5003;56932;38.402;-96.176;2023-04-24T06:15:04;19;19;
69688;PMS5003;56932;38.402;-96.176;2023-04-24T06:17:29;24;22;
69688;PMS5003;56932;38.402;-96.176;2023-04-24T06:19:55;21;20;
69688;PMS5003;56932;38.402;-96.176;2023-04-24T06:22:20;18;18;
69688;PMS5003;56932;38.402;-96.176;2023-04-24T06:24:45;24;20;
69688;PMS5003;56932;38.402;-96.176;2023-04-24T06:27:11;21;20;
69688;PMS5003;56932;38.402;-96.176;2023-04-24T06:29:36;17;17;
69688;PMS5003;56932;38.402;-96.176;2023-04-24T06:32:02;23;20;
69688;PMS5003;56932;38.402;-96.176;2023-04-24T06:34:27;17;16;
69688;PMS5003;56932;38.402;-96.176;2023-04-24T06:36:53;21;16;
69688;PMS5003;56932;38.402;-96.176;2023-04-24T06:39:18;19;19;
69688;PMS5003;56932;38.402;-96.176;2023-04-24T06:41:44;18;17;
69688;PMS5003;56932;38.402;-96.176;2023-04-24T06:44:09;18;16;
69688;PMS5003;56932;38.402;-96.176;2023-04-24T06:46:35;20;16;
69688;PMS5003;56932;38.402;-96.176;2023-04-24T06:49:00;22;19;
69688;PMS5003;56932;38.402;-96.176;2023-04-24T06:51:26;17;17;
69688;PMS5003;56932;38.402;-96.176;2023-04-24T06:53:52;19;19;
69688;PMS5003;56932;38.402;-96.176;2023-04-24T06:56:17;25;17;
69688;PMS5003;56932;38.402;-96.176;2023-04-24T06:58:42;21;20;
69688;PMS5003;56932;38.402;-96.176;2023-04-24T07:01:08;18;18;
69688;PMS5003;56932;38.402;-96.176;2023-04-24T07:03:33;15;14;
69688;PMS5003;56932;38.402;-96.176;2023-04-24T07:05:59;19;14;
69688;PMS5003;56932;38.402;-96.176;2023-04-24T07:08:24;15;14;
69688;PMS5003;56932;38.402;-96.176;2023-04-24T07:10:50;23;15;
69688;PMS5003;56932;38.402;-96.176;2023-04-24T07:13:16;21;15;
69688;PMS5003;56932;38.402;-96.176;2023-04-24T07:15:41;17;17;
69688;PMS5003;56932;38.402;-96.176;2023-04-24T07:18:07;15;15;
69688;PMS5003;56932;38.402;-96.176;2023-04-24T07:20:32;17;15;
69688;PMS5003;56932;38.402;-96.176;2023-04-24T07:22:57;15;15;
69688;PMS5003;56932;38.402;-96.176;2023-04-24T07:25:22;13;13;
69688;PMS5003;56932;38.402;-96.176;2023-04-24T07:27:48;13;13;
69688;PMS5003;56932;38.402;-96.176;2023-04-24T07:30:14;15;15;
69688;PMS5003;56932;38.402;-96.176;2023-04-24T07:32:39;12;12;
69688;PMS5003;56932;38.402;-96.176;2023-04-24T07:35:05;15;14;
69688;PMS5003;56932;38.402;-96.176;2023-04-24T07:37:30;16;16;
69688;PMS5003;56932;38.402;-96.176;2023-04-24T07:39:55;15;12;
69688;PMS5003;56932;38.402;-96.176;2023-04-24T07:42:21;12;12;
69688;PMS5003;56932;38.402;-96.176;2023-04-24T07:44:46;13;13;
69688;PMS5003;56932;38.402;-96.176;2023-04-24T07:47:11;11;11;
69688;PMS5003;56932;38.402;-96.176;2023-04-24T07:49:37;18;14;
69688;PMS5003;56932;38.402;-96.176;2023-04-24T07:52:03;16;14;
69688;PMS5003;56932;38.402;-96.176;2023-04-24T07:54:28;11;11;
69688;PMS5003;56932;38.402;-96.176;2023-04-24T07:56:53;12;12;
69688;PMS5003;56932;38.402;-96.176;2023-04-24T07:59:19;13;11;
69688;PMS5003;56932;38.402;-96.176;2023-04-24T08:01:44;15;14;
69688;PMS5003;56932;38.402;-96.176;2023-04-24T08:04:10;12;11;
69688;PMS5003;56932;38.402;-96.176;2023-04-24T08:06:35;16;11;
69688;PMS5003;56932;38.402;-96.176;2023-04-24T08:09:01;14;11;
69688;PMS5003;56932;38.402;-96.176;2023-04-24T08:11:26;13;10;
69688;PMS5003;56932;38.402;-96.176;2023-04-24T08:13:52;11;11;
69688;PMS5003;56932;38.402;-96.176;2023-04-24T08:16:17;14;12;
69688;PMS5003;56932;38.402;-96.176;2023-04-24T08:18:43;9;8;
69688;PMS5003;56932;38.402;-96.176;2023-04-24T08:21:09;13;12;
69688;PMS5003;56932;38.402;-96.176;2023-04-24T08:23:34;16;12;
69688;PMS5003;56932;38.402;-96.176;2023-04-24T08:25:59;11;11;
69688;PMS5003;56932;38.402;-96.176;2023-04-24T08:28:25;13;13;
69688;PMS5003;56932;38.402;-96.176;2023-04-24T08:30:50;10;10;
69688;PMS5003;56932;38.402;-96.176;2023-04-24T08:33:16;12;11;
69688;PMS5003;56932;38.402;-96.176;2023-04-24T08:35:41;11;10;
69688;PMS5003;56932;38.402;-96.176;2023-04-24T08:38:07;12;10;
69688;PMS5003;56932;38.402;-96.176;2023-04-24T08:40:33;9;9;
69688;PMS5003;56932;38.402;-96.176;2023-04-24T08:42:58;10;10;
69688;PMS5003;56932;38.402;-96.176;2023-04-24T08:45:24;13;8;
69688;PMS5003;56932;38.402;-96.176;2023-04-24T08:47:49;9;9;
69688;PMS5003;56932;38.402;-96.176;2023-04-24T08:50:15;12;9;
69688;PMS5003;56932;38.402;-96.176;2023-04-24T08:52:40;12;10;
69688;PMS5003;56932;38.402;-96.176;2023-04-24T08:55:06;9;9;
69688;PMS5003;56932;38.402;-96.176;2023-04-24T08:57:31;9;9;
69688;PMS5003;56932;38.402;-96.176;2023-04-24T08:59:56;9;9;
69688;PMS5003;56932;38.402;-96.176;2023-04-24T09:02:22;10;10;
69688;PMS5003;56932;38.402;-96.176;2023-04-24T09:04:48;11;11;
69688;PMS5003;56932;38.402;-96.176;2023-04-24T09:07:14;13;11;
69688;PMS5003;56932;38.402;-96.176;2023-04-24T09:09:39;9;9;
69688;PMS5003;56932;38.402;-96.176;2023-04-24T09:12:04;9;9;
69688;PMS5003;56932;38.402;-96.176;2023-04-24T09:14:30;11;9;
69688;PMS5003;56932;38.402;-96.176;2023-04-24T09:16:55;9;9;
69688;PMS5003;56932;38.402;-96.176;2023-04-24T09:19:21;9;8;
69688;PMS5003;56932;38.402;-96.176;2023-04-24T09:21:46;9;7;
69688;PMS5003;56932;38.402;-96.176;2023-04-24T09:24:14;19;10;
69688;PMS5003;56932;38.402;-96.176;2023-04-24T09:26:37;10;10;
69688;PMS5003;56932;38.402;-96.176;2023-04-24T09:29:03;11;10;
69688;PMS5003;56932;38.402;-96.176;2023-04-24T09:31:29;9;9;
69688;PMS5003;56932;38.402;-96.176;2023-04-24T09:33:54;13;11;
69688;PMS5003;56932;38.402;-96.176;2023-04-24T09:36:20;10;9;
69688;PMS5003;56932;38.402;-96.176;2023-04-24T09:38:45;10;9;
69688;PMS5003;56932;38.402;-96.176;2023-04-24T09:41:13;15;9;
69688;PMS5003;56932;38.402;-96.176;2023-04-24T09:43:36;9;9;
69688;PMS5003;56932;38.402;-96.176;2023-04-24T09:46:04;13;11;
69688;PMS5003;56932;38.402;-96.176;2023-04-24T09:48:31;9;8;
69688;PMS5003;56932;38.402;-96.176;2023-04-24T09:50:53;10;9;
69688;PMS5003;56932;38.402;-96.176;2023-04-24T09:53:19;9;9;
69688;PMS5003;56932;38.402;-96.176;2023-04-24T09:55:44;10;8;
69688;PMS5003;56932;38.402;-96.176;2023-04-24T09:58:10;9;7;
69688;PMS5003;56932;38.402;-96.176;2023-04-24T10:00:35;10;10;
69688;PMS5003;56932;38.402;-96.176;2023-04-24T10:03:01;11;11;
69688;PMS5003;56932;38.402;-96.176;2023-04-24T10:05:27;14;9;
69688;PMS5003;56932;38.402;-96.176;2023-04-24T10:07:51;7;7;
69688;PMS5003;56932;38.402;-96.176;2023-04-24T10:10:17;10;10;
69688;PMS5003;56932;38.402;-96.176;2023-04-24T10:12:42;7;7;
69688;PMS5003;56932;38.402;-96.176;2023-04-24T10:15:09;9;9;
69688;PMS5003;56932;38.402;-96.176;2023-04-24T10:17:33;9;9;
69688;PMS5003;56932;38.402;-96.176;2023-04-24T10:19:59;9;9;
69688;PMS5003;56932;38.402;-96.176;2023-04-24T10:22:24;12;8;
69688;PMS5003;56932;38.402;-96.176;2023-04-24T10:24:50;8;8;
69688;PMS5003;56932;38.402;-96.176;2023-04-24T10:27:16;8;8;
69688;PMS5003;56932;38.402;-96.176;2023-04-24T10:29:41;12;10;
69688;PMS5003;56932;38.402;-96.176;2023-04-24T10:32:07;8;7;
69688;PMS5003;56932;38.402;-96.176;2023-04-24T10:34:32;8;7;
69688;PMS5003;56932;38.402;-96.176;2023-04-24T10:36:58;9;7;
69688;PMS5003;56932;38.402;-96.176;2023-04-24T10:39:23;10;10;
69688;PMS5003;56932;38.402;-96.176;2023-04-24T10:41:49;9;9;
69688;PMS5003;56932;38.402;-96.176;2023-04-24T10:44:15;10;10;
69688;PMS5003;56932;38.402;-96.176;2023-04-24T10:46:43;10;10;
69688;PMS5003;56932;38.402;-96.176;2023-04-24T10:49:06;9;9;
69688;PMS5003;56932;38.402;-96.176;2023-04-24T10:53:57;16;9;
69688;PMS5003;56932;38.402;-96.176;2023-04-24T10:56:22;11;10;
69688;PMS5003;56932;38.402;-96.176;2023-04-24T10:58:49;6;6;
69688;PMS5003;56932;38.402;-96.176;2023-04-24T11:03:39;11;8;
69688;PMS5003;56932;38.402;-96.176;2023-04-24T11:06:05;11;10;
69688;PMS5003;56932;38.402;-96.176;2023-04-24T11:08:31;8;8;
69688;PMS5003;56932;38.402;-96.176;2023-04-24T11:10:57;9;9;
69688;PMS5003;56932;38.402;-96.176;2023-04-24T11:13:21;9;9;
69688;PMS5003;56932;38.402;-96.176;2023-04-24T11:15:47;11;10;
69688;PMS5003;56932;38.402;-96.176;2023-04-24T11:18:14;10;10;
69688;PMS5003;56932;38.402;-96.176;2023-04-24T11:20:38;13;7;
69688;PMS5003;56932;38.402;-96.176;2023-04-24T11:23:03;9;9;
69688;PMS5003;56932;38.402;-96.176;2023-04-24T11:25:30;8;8;
69688;PMS5003;56932;38.402;-96.176;2023-04-24T11:30:20;8;8;
69688;PMS5003;56932;38.402;-96.176;2023-04-24T11:32:47;11;10;
69688;PMS5003;56932;38.402;-96.176;2023-04-24T11:35:14;8;8;
69688;PMS5003;56932;38.402;-96.176;2023-04-24T11:37:37;11;10;
69688;PMS5003;56932;38.402;-96.176;2023-04-24T11:40:02;9;9;
69688;PMS5003;56932;38.402;-96.176;2023-04-24T11:42:28;9;9;
69688;PMS5003;56932;38.402;-96.176;2023-04-24T11:44:53;8;8;
69688;PMS5003;56932;38.402;-96.176;2023-04-24T11:47:19;11;10;
69688;PMS5003;56932;38.402;-96.176;2023-04-24T11:49:44;11;9;
69688;PMS5003;56932;38.402;-96.176;2023-04-24T11:52:09;7;7;
69688;PMS5003;56932;38.402;-96.176;2023-04-24T11:54:35;8;8;
69688;PMS5003;56932;38.402;-96.176;2023-04-24T11:57:03;8;8;
69688;PMS5003;56932;38.402;-96.176;2023-04-24T11:59:26;10;10;
69688;PMS5003;56932;38.402;-96.176;2023-04-24T12:01:51;10;8;
69688;PMS5003;56932;38.402;-96.176;2023-04-24T12:04:17;12;9;
69688;PMS5003;56932;38.402;-96.176;2023-04-24T12:09:08;6;6;
69688;PMS5003;56932;38.402;-96.176;2023-04-24T12:11:34;9;9;
69688;PMS5003;56932;38.402;-96.176;2023-04-24T12:16:26;9;8;
69688;PMS5003;56932;38.402;-96.176;2023-04-24T12:18:51;11;9;
69688;PMS5003;56932;38.402;-96.176;2023-04-24T12:21:17;9;7;
69688;PMS5003;56932;38.402;-96.176;2023-04-24T12:23:42;13;10;
69688;PMS5003;56932;38.402;-96.176;2023-04-24T12:26:07;11;11;
69688;PMS5003;56932;38.402;-96.176;2023-04-24T12:28:36;9;9;
69688;PMS5003;56932;38.402;-96.176;2023-04-24T12:30:58;11;9;
69688;PMS5003;56932;38.402;-96.176;2023-04-24T12:33:24;8;8;
69688;PMS5003;56932;38.402;-96.176;2023-04-24T12:35:51;8;8;
69688;PMS5003;56932;38.402;-96.176;2023-04-24T12:38:15;9;9;
69688;PMS5003;56932;38.402;-96.176;2023-04-24T12:40:41;13;11;
69688;PMS5003;56932;38.402;-96.176;2023-04-24T12:45:32;9;8;
69688;PMS5003;56932;38.402;-96.176;2023-04-24T12:47:57;11;10;
69688;PMS5003;56932;38.402;-96.176;2023-04-24T12:50:23;11;9;
69688;PMS5003;56932;38.402;-96.176;2023-04-24T12:52:49;10;7;
69688;PMS5003;56932;38.402;-96.176;2023-04-24T12:55:14;9;7;
69688;PMS5003;56932;38.402;-96.176;2023-04-24T12:57:40;8;8;
69688;PMS5003;56932;38.402;-96.176;2023-04-24T13:00:06;11;9;
69688;PMS5003;56932;38.402;-96.176;2023-04-24T13:02:31;7;7;
69688;PMS5003;56932;38.402;-96.176;2023-04-24T13:04:56;9;8;
69688;PMS5003;56932;38.402;-96.176;2023-04-24T13:07:22;8;8;
69688;PMS5003;56932;38.402;-96.176;2023-04-24T13:09:48;10;10;
69688;PMS5003;56932;38.402;-96.176;2023-04-24T13:12:13;6;6;
69688;PMS5003;56932;38.402;-96.176;2023-04-24T13:14:38;8;8;
69688;PMS5003;56932;38.402;-96.176;2023-04-24T13:17:04;9;9;
69688;PMS5003;56932;38.402;-96.176;2023-04-24T13:19:29;9;9;
69688;PMS5003;56932;38.402;-96.176;2023-04-24T13:21:55;9;8;
69688;PMS5003;56932;38.402;-96.176;2023-04-24T13:24:20;8;8;
69688;PMS5003;56932;38.402;-96.176;2023-04-24T13:26:46;8;6;
69688;PMS5003;56932;38.402;-96.176;2023-04-24T13:29:11;9;8;
69688;PMS5003;56932;38.402;-96.176;2023-04-24T13:31:37;10;8;
69688;PMS5003;56932;38.402;-96.176;2023-04-24T13:34:03;9;9;
69688;PMS5003;56932;38.402;-96.176;2023-04-24T13:36:28;7;7;
69688;PMS5003;56932;38.402;-96.176;2023-04-24T13:38:53;7;7;
69688;PMS5003;56932;38.402;-96.176;2023-04-24T13:41:19;7;7;
69688;PMS5003;56932;38.402;-96.176;2023-04-24T13:43:44;8;8;
69688;PMS5003;56932;38.402;-96.176;2023-04-24T13:46:10;8;8;
69688;PMS5003;56932;38.402;-96.176;2023-04-24T13:48:36;6;6;
69688;PMS5003;56932;38.402;-96.176;2023-04-24T13:51:01;6;6;
69688;PMS5003;56932;38.402;-96.176;2023-04-24T13:53:27;8;8;
69688;PMS5003;56932;38.402;-96.176;2023-04-24T13:55:52;9;9;
69688;PMS5003;56932;38.402;-96.176;2023-04-24T13:58:18;8;7;
69688;PMS5003;56932;38.402;-96.176;2023-04-24T14:00:43;8;7;
69688;PMS5003;56932;38.402;-96.176;2023-04-24T14:03:09;6;6;
69688;PMS5003;56932;38.402;-96.176;2023-04-24T14:05:34;9;8;
69688;PMS5003;56932;38.402;-96.176;2023-04-24T14:08:00;11;9;
69688;PMS5003;56932;38.402;-96.176;2023-04-24T14:10:25;6;6;
69688;PMS5003;56932;38.402;-96.176;2023-04-24T14:12:51;7;7;
69688;PMS5003;56932;38.402;-96.176;2023-04-24T14:15:16;8;8;
69688;PMS5003;56932;38.402;-96.176;2023-04-24T14:17:42;7;6;
69688;PMS5003;56932;38.402;-96.176;2023-04-24T14:20:08;7;7;
69688;PMS5003;56932;38.402;-96.176;2023-04-24T14:22:33;8;7;
69688;PMS5003;56932;38.402;-96.176;2023-04-24T14:24:59;9;6;
69688;PMS5003;56932;38.402;-96.176;2023-04-24T14:27:24;10;8;
69688;PMS5003;56932;38.402;-96.176;2023-04-24T14:29:50;12;7;
69688;PMS5003;56932;38.402;-96.176;2023-04-24T14:32:15;10;10;
69688;PMS5003;56932;38.402;-96.176;2023-04-24T14:34:41;5;5;
69688;PMS5003;56932;38.402;-96.176;2023-04-24T14:37:07;5;5;
69688;PMS5003;56932;38.402;-96.176;2023-04-24T14:39:32;6;6;
69688;PMS5003;56932;38.402;-96.176;2023-04-24T14:41:58;5;5;
69688;PMS5003;56932;38.402;-96.176;2023-04-24T14:44:23;6;5;
69688;PMS5003;56932;38.402;-96.176;2023-04-24T14:46:49;7;5;
69688;PMS5003;56932;38.402;-96.176;2023-04-24T14:49:14;7;7;
69688;PMS5003;56932;38.402;-96.176;2023-04-24T14:51:40;6;6;
69688;PMS5003;56932;38.402;-96.176;2023-04-24T14:54:06;4;4;
69688;PMS5003;56932;38.402;-96.176;2023-04-24T14:56:31;5;5;
69688;PMS5003;56932;38.402;-96.176;2023-04-24T14:58:57;7;6;
69688;PMS5003;56932;38.402;-96.176;2023-04-24T15:01:22;8;7;
69688;PMS5003;56932;38.402;-96.176;2023-04-24T15:03:48;5;5;
69688;PMS5003;56932;38.402;-96.176;2023-04-24T15:06:13;6;5;
69688;PMS5003;56932;38.402;-96.176;2023-04-24T15:08:39;6;6;
69688;PMS5003;56932;38.402;-96.176;2023-04-24T15:11:04;7;6;
69688;PMS5003;56932;38.402;-96.176;2023-04-24T15:13:30;5;5;
69688;PMS5003;56932;38.402;-96.176;2023-04-24T15:15:55;5;5;
69688;PMS5003;56932;38.402;-96.176;2023-04-24T15:18:21;7;7;
69688;PMS5003;56932;38.402;-96.176;2023-04-24T15:20:46;6;6;
69688;PMS5003;56932;38.402;-96.176;2023-04-24T15:23:12;7;6;
69688;PMS5003;56932;38.402;-96.176;2023-04-24T15:25:37;8;5;
69688;PMS5003;56932;38.402;-96.176;2023-04-24T15:28:03;5;4;
69688;PMS5003;56932;38.402;-96.176;2023-04-24T15:30:28;5;5;
69688;PMS5003;56932;38.402;-96.176;2023-04-24T15:32:54;3;3;
69688;PMS5003;56932;38.402;-96.176;2023-04-24T15:35:19;6;6;
69688;PMS5003;56932;38.402;-96.176;2023-04-24T15:37:45;8;8;
69688;PMS5003;56932;38.402;-96.176;2023-04-24T15:40:11;4;4;
69688;PMS5003;56932;38.402;-96.176;2023-04-24T15:42:36;5;5;
69688;PMS5003;56932;38.402;-96.176;2023-04-24T15:45:03;5;5;
69688;PMS5003;56932;38.402;-96.176;2023-04-24T15:47:27;4;4;
69688;PMS5003;56932;38.402;-96.176;2023-04-24T15:49:53;6;6;
69688;PMS5003;56932;38.402;-96.176;2023-04-24T15:52:18;5;5;
69688;PMS5003;56932;38.402;-96.176;2023-04-24T15:54:44;7;6;
69688;PMS5003;56932;38.402;-96.176;2023-04-24T15:57:09;6;6;
69688;PMS5003;56932;38.402;-96.176;2023-04-24T15:59:35;4;4;